DVH8455 KDCA-KMEM
Flight info
| Callsign | DVH8455 |
|---|---|
| Flight time | N/A |
| Altitude | 28000 |
| Route | REBLL5 OTTTO Q176 HNN FLM IIU PXV BLUZZ5 |
| Aircraft | B722/M-SDFGHRWY/C |
Departure
| Time | 2026-04-30 14:13 |
|---|---|
| Airport | Ronald Reagan Washington National Airport (KDCA) |
Arrival
| Time | N/A |
|---|---|
| Airport | Memphis International Airport (KMEM) |
| Time | Latitude | Longitude | Altitude | Speed | Heading |
|---|---|---|---|---|---|
| 2026-04-30 13:31 | 38.85159 | -77.04041 | 27 ft | 0 kts | 317° |
| 2026-04-30 13:59 | 38.85155 | -77.04037 | 27 ft | 3 kts | 317° |
| 2026-04-30 13:59 | 38.85141 | -77.04020 | 27 ft | 3 kts | 316° |
| 2026-04-30 14:00 | 38.85125 | -77.03996 | 27 ft | 3 kts | 307° |
| 2026-04-30 14:00 | 38.85092 | -77.03971 | 27 ft | 3 kts | 355° |
| 2026-04-30 14:00 | 38.85072 | -77.03969 | 27 ft | 0 kts | 355° |
| 2026-04-30 14:05 | 38.85073 | -77.03969 | 27 ft | 1 kts | 355° |
| 2026-04-30 14:06 | 38.85098 | -77.03971 | 27 ft | 7 kts | 355° |
| 2026-04-30 14:06 | 38.85117 | -77.03913 | 27 ft | 6 kts | 165° |
| 2026-04-30 14:07 | 38.85006 | -77.03908 | 27 ft | 13 kts | 178° |
| 2026-04-30 14:07 | 38.84908 | -77.03895 | 27 ft | 15 kts | 173° |
| 2026-04-30 14:07 | 38.84803 | -77.03882 | 27 ft | 15 kts | 175° |
| 2026-04-30 14:08 | 38.84609 | -77.03863 | 28 ft | 14 kts | 175° |
| 2026-04-30 14:08 | 38.84510 | -77.03852 | 28 ft | 14 kts | 175° |
| 2026-04-30 14:08 | 38.84323 | -77.03833 | 28 ft | 13 kts | 176° |
| 2026-04-30 14:09 | 38.84241 | -77.03810 | 28 ft | 11 kts | 138° |
| 2026-04-30 14:09 | 38.84231 | -77.03795 | 28 ft | 0 kts | 128° |
| 2026-04-30 14:10 | 38.84229 | -77.03791 | 28 ft | 3 kts | 128° |
| 2026-04-30 14:10 | 38.84199 | -77.03740 | 27 ft | 8 kts | 115° |
| 2026-04-30 14:10 | 38.84211 | -77.03690 | 27 ft | 6 kts | 21° |
| 2026-04-30 14:11 | 38.84232 | -77.03688 | 27 ft | 0 kts | 358° |
| 2026-04-30 14:11 | 38.84241 | -77.03689 | 27 ft | 10 kts | 358° |
| 2026-04-30 14:12 | 38.84516 | -77.03713 | 28 ft | 70 kts | 355° |
| 2026-04-30 14:12 | 38.85193 | -77.03780 | 27 ft | 123 kts | 355° |
| 2026-04-30 14:12 | 38.86184 | -77.03878 | 45 ft | 159 kts | 354° |
| 2026-04-30 14:12 | 38.87321 | -77.03983 | 383 ft | 166 kts | 356° |
| 2026-04-30 14:13 | 38.88511 | -77.04058 | 805 ft | 177 kts | 356° |
| 2026-04-30 14:13 | 38.89763 | -77.04155 | 1262 ft | 188 kts | 356° |
| 2026-04-30 14:13 | 38.91138 | -77.04274 | 1585 ft | 208 kts | 358° |
| 2026-04-30 14:13 | 38.92644 | -77.04410 | 1947 ft | 225 kts | 355° |
| 2026-04-30 14:14 | 38.94164 | -77.05072 | 2271 ft | 243 kts | 325° |
| 2026-04-30 14:14 | 38.95420 | -77.06650 | 2617 ft | 266 kts | 297° |
| 2026-04-30 14:14 | 38.96062 | -77.08857 | 3438 ft | 261 kts | 277° |
| 2026-04-30 14:14 | 38.96319 | -77.11118 | 4607 ft | 254 kts | 271° |
| 2026-04-30 14:15 | 38.96512 | -77.13402 | 5472 ft | 260 kts | 273° |
| 2026-04-30 14:15 | 38.96800 | -77.15713 | 6374 ft | 264 kts | 277° |
| 2026-04-30 14:15 | 38.97173 | -77.18038 | 7185 ft | 268 kts | 277° |
| 2026-04-30 14:15 | 38.97548 | -77.20395 | 8037 ft | 270 kts | 277° |
| 2026-04-30 14:16 | 38.97900 | -77.22789 | 8866 ft | 274 kts | 276° |
| 2026-04-30 14:16 | 38.98250 | -77.25183 | 9836 ft | 272 kts | 275° |
| 2026-04-30 14:16 | 38.98391 | -77.27600 | 10514 ft | 274 kts | 261° |
| 2026-04-30 14:16 | 38.97928 | -77.30056 | 10842 ft | 290 kts | 249° |
| 2026-04-30 14:17 | 38.97129 | -77.32515 | 11240 ft | 305 kts | 243° |
| 2026-04-30 14:17 | 38.96254 | -77.34950 | 12093 ft | 305 kts | 245° |
| 2026-04-30 14:17 | 38.95437 | -77.37497 | 12795 ft | 310 kts | 248° |
| 2026-04-30 14:17 | 38.94648 | -77.40097 | 13600 ft | 314 kts | 248° |
| 2026-04-30 14:18 | 38.93814 | -77.42714 | 14498 ft | 318 kts | 247° |
| 2026-04-30 14:18 | 38.92955 | -77.45339 | 15431 ft | 321 kts | 247° |
| 2026-04-30 14:18 | 38.91227 | -77.50731 | 17168 ft | 332 kts | 249° |
| 2026-04-30 14:19 | 38.89448 | -77.56264 | 18588 ft | 337 kts | 248° |
| 2026-04-30 14:19 | 38.88663 | -77.59103 | 19093 ft | 339 kts | 255° |
| 2026-04-30 14:19 | 38.88187 | -77.62073 | 19621 ft | 341 kts | 262° |
| 2026-04-30 14:20 | 38.87881 | -77.65105 | 20124 ft | 344 kts | 262° |
| 2026-04-30 14:20 | 38.87507 | -77.68151 | 20618 ft | 347 kts | 259° |
| 2026-04-30 14:20 | 38.86552 | -77.74248 | 21602 ft | 354 kts | 259° |
| 2026-04-30 14:21 | 38.86126 | -77.77367 | 22101 ft | 356 kts | 260° |
| 2026-04-30 14:21 | 38.85693 | -77.80516 | 22571 ft | 360 kts | 259° |
| 2026-04-30 14:21 | 38.84763 | -77.86875 | 23484 ft | 366 kts | 259° |
| 2026-04-30 14:22 | 38.84483 | -77.90129 | 23845 ft | 368 kts | 267° |
| 2026-04-30 14:22 | 38.84768 | -77.96714 | 24713 ft | 370 kts | 273° |
| 2026-04-30 14:22 | 38.84922 | -77.99980 | 25322 ft | 365 kts | 270° |
| 2026-04-30 14:23 | 38.85018 | -78.06555 | 26015 ft | 370 kts | 270° |
| 2026-04-30 14:23 | 38.85248 | -78.13140 | 26757 ft | 374 kts | 270° |
| 2026-04-30 14:24 | 38.85411 | -78.19820 | 27487 ft | 376 kts | 270° |
| 2026-04-30 14:24 | 38.85453 | -78.23183 | 27864 ft | 378 kts | 268° |
| 2026-04-30 14:25 | 38.85323 | -78.30062 | 27891 ft | 392 kts | 267° |
| 2026-04-30 14:25 | 38.85270 | -78.37155 | 27890 ft | 402 kts | 268° |
| 2026-04-30 14:26 | 38.85179 | -78.44324 | 27894 ft | 401 kts | 268° |
| 2026-04-30 14:26 | 38.85131 | -78.47890 | 27897 ft | 399 kts | 268° |
| 2026-04-30 14:26 | 38.85052 | -78.55001 | 27885 ft | 397 kts | 268° |
| 2026-04-30 14:27 | 38.85004 | -78.58522 | 27885 ft | 394 kts | 268° |
| 2026-04-30 14:27 | 38.84955 | -78.62021 | 27887 ft | 392 kts | 268° |
| 2026-04-30 14:27 | 38.84909 | -78.65510 | 27885 ft | 390 kts | 268° |
| 2026-04-30 14:28 | 38.84814 | -78.72421 | 27902 ft | 386 kts | 267° |
| 2026-04-30 14:28 | 38.84763 | -78.75848 | 27896 ft | 384 kts | 267° |
| 2026-04-30 14:28 | 38.84712 | -78.79229 | 27895 ft | 383 kts | 267° |
| 2026-04-30 14:28 | 38.84662 | -78.82678 | 27898 ft | 382 kts | 267° |
| 2026-04-30 14:29 | 38.84557 | -78.89425 | 27892 ft | 379 kts | 267° |
| 2026-04-30 14:29 | 38.84467 | -78.95074 | 27887 ft | 377 kts | 267° |
| 2026-04-30 14:30 | 38.84279 | -79.06233 | 27898 ft | 375 kts | 266° |
| 2026-04-30 14:31 | 38.84163 | -79.12887 | 27888 ft | 371 kts | 267° |
| 2026-04-30 14:31 | 38.84045 | -79.19481 | 27881 ft | 369 kts | 268° |
| 2026-04-30 14:31 | 38.83984 | -79.22773 | 27883 ft | 369 kts | 268° |
| 2026-04-30 14:32 | 38.83860 | -79.29338 | 27879 ft | 368 kts | 268° |
| 2026-04-30 14:32 | 38.83798 | -79.32607 | 27879 ft | 366 kts | 267° |
| 2026-04-30 14:32 | 38.83733 | -79.35876 | 27880 ft | 366 kts | 268° |
| 2026-04-30 14:33 | 38.83668 | -79.39103 | 27879 ft | 366 kts | 268° |
| 2026-04-30 14:33 | 38.83536 | -79.45620 | 27897 ft | 366 kts | 267° |
| 2026-04-30 14:33 | 38.83469 | -79.48878 | 27896 ft | 365 kts | 267° |
| 2026-04-30 14:34 | 38.83400 | -79.52137 | 27903 ft | 364 kts | 267° |
| 2026-04-30 14:34 | 38.83330 | -79.55382 | 27896 ft | 364 kts | 267° |
| 2026-04-30 14:34 | 38.83260 | -79.58632 | 27897 ft | 364 kts | 267° |
| 2026-04-30 14:34 | 38.83190 | -79.61870 | 27893 ft | 364 kts | 267° |
| 2026-04-30 14:35 | 38.83045 | -79.68360 | 27885 ft | 364 kts | 267° |
| 2026-04-30 14:35 | 38.82972 | -79.71601 | 27864 ft | 364 kts | 267° |
| 2026-04-30 14:35 | 38.82898 | -79.74855 | 27878 ft | 365 kts | 267° |
| 2026-04-30 14:36 | 38.82822 | -79.78115 | 27868 ft | 366 kts | 267° |
| 2026-04-30 14:36 | 38.82745 | -79.81389 | 27865 ft | 367 kts | 267° |
| 2026-04-30 14:36 | 38.82670 | -79.84659 | 27866 ft | 367 kts | 267° |
| 2026-04-30 14:36 | 38.82593 | -79.87930 | 27868 ft | 366 kts | 266° |
| 2026-04-30 14:37 | 38.82508 | -79.91193 | 27864 ft | 366 kts | 266° |
| 2026-04-30 14:37 | 38.82427 | -79.94454 | 27861 ft | 365 kts | 266° |
| 2026-04-30 14:37 | 38.82347 | -79.97712 | 27865 ft | 365 kts | 266° |
| 2026-04-30 14:37 | 38.82266 | -80.00964 | 27868 ft | 365 kts | 266° |
| 2026-04-30 14:38 | 38.82183 | -80.04217 | 27871 ft | 365 kts | 266° |
| 2026-04-30 14:38 | 38.82101 | -80.07469 | 27871 ft | 364 kts | 266° |
| 2026-04-30 14:38 | 38.82017 | -80.10713 | 27881 ft | 364 kts | 266° |
| 2026-04-30 14:38 | 38.81929 | -80.13951 | 27871 ft | 364 kts | 266° |
| 2026-04-30 14:39 | 38.81843 | -80.17148 | 27905 ft | 363 kts | 266° |
| 2026-04-30 14:39 | 38.81757 | -80.20397 | 27873 ft | 364 kts | 266° |
| 2026-04-30 14:39 | 38.81670 | -80.23640 | 27875 ft | 363 kts | 266° |
| 2026-04-30 14:40 | 38.81489 | -80.30109 | 27877 ft | 362 kts | 266° |
| 2026-04-30 14:40 | 38.81399 | -80.33338 | 27874 ft | 362 kts | 266° |
| 2026-04-30 14:40 | 38.81310 | -80.36562 | 27874 ft | 362 kts | 266° |
| 2026-04-30 14:40 | 38.81219 | -80.39785 | 27875 ft | 361 kts | 266° |
| 2026-04-30 14:41 | 38.81125 | -80.43005 | 27869 ft | 361 kts | 266° |
| 2026-04-30 14:41 | 38.81030 | -80.46228 | 27868 ft | 361 kts | 266° |
| 2026-04-30 14:41 | 38.80935 | -80.49444 | 27868 ft | 361 kts | 266° |
| 2026-04-30 14:41 | 38.80841 | -80.52658 | 27865 ft | 361 kts | 266° |
| 2026-04-30 14:42 | 38.80744 | -80.55876 | 27867 ft | 361 kts | 266° |
| 2026-04-30 14:42 | 38.80649 | -80.59049 | 27877 ft | 361 kts | 266° |
| 2026-04-30 14:42 | 38.80552 | -80.62257 | 27867 ft | 360 kts | 266° |
| 2026-04-30 14:42 | 38.80452 | -80.65472 | 27862 ft | 360 kts | 266° |
| 2026-04-30 14:43 | 38.80351 | -80.68681 | 27859 ft | 359 kts | 266° |
| 2026-04-30 14:43 | 38.80252 | -80.71872 | 27857 ft | 358 kts | 266° |
| 2026-04-30 14:43 | 38.80152 | -80.75056 | 27856 ft | 357 kts | 266° |
| 2026-04-30 14:43 | 38.80051 | -80.78238 | 27851 ft | 356 kts | 266° |
| 2026-04-30 14:44 | 38.79949 | -80.81406 | 27848 ft | 355 kts | 266° |
| 2026-04-30 14:44 | 38.79847 | -80.84565 | 27843 ft | 354 kts | 266° |
| 2026-04-30 14:44 | 38.79744 | -80.87714 | 27844 ft | 354 kts | 266° |
| 2026-04-30 14:44 | 38.79640 | -80.90864 | 27845 ft | 353 kts | 266° |
| 2026-04-30 14:45 | 38.79536 | -80.94012 | 27846 ft | 353 kts | 266° |
| 2026-04-30 14:45 | 38.79431 | -80.97159 | 27853 ft | 353 kts | 266° |
| 2026-04-30 14:45 | 38.79324 | -81.00300 | 27852 ft | 353 kts | 266° |
| 2026-04-30 14:45 | 38.79217 | -81.03439 | 27854 ft | 352 kts | 266° |
| 2026-04-30 14:46 | 38.79109 | -81.06576 | 27851 ft | 351 kts | 266° |
| 2026-04-30 14:46 | 38.79024 | -81.09100 | 27843 ft | 351 kts | 266° |
| 2026-04-30 14:46 | 38.78978 | -81.10429 | 27848 ft | 351 kts | 266° |
| 2026-04-30 14:46 | 38.78907 | -81.12494 | 27842 ft | 351 kts | 266° |
| 2026-04-30 14:47 | 38.78760 | -81.16629 | 27788 ft | 350 kts | 266° |
| 2026-04-30 14:47 | 38.78651 | -81.19730 | 27848 ft | 348 kts | 266° |
| 2026-04-30 14:47 | 38.78542 | -81.22830 | 27844 ft | 348 kts | 266° |
| 2026-04-30 14:47 | 38.78429 | -81.25927 | 27841 ft | 347 kts | 266° |
| 2026-04-30 14:48 | 38.78316 | -81.29021 | 27873 ft | 347 kts | 266° |
| 2026-04-30 14:48 | 38.78204 | -81.32118 | 27853 ft | 347 kts | 266° |
| 2026-04-30 14:48 | 38.78092 | -81.35210 | 27854 ft | 347 kts | 266° |
| 2026-04-30 14:48 | 38.77978 | -81.38302 | 27853 ft | 346 kts | 266° |
| 2026-04-30 14:49 | 38.77864 | -81.41344 | 27851 ft | 346 kts | 266° |
| 2026-04-30 14:49 | 38.77745 | -81.44467 | 27852 ft | 346 kts | 266° |
| 2026-04-30 14:49 | 38.77631 | -81.47506 | 27850 ft | 346 kts | 266° |
| 2026-04-30 14:49 | 38.77516 | -81.50526 | 27853 ft | 346 kts | 266° |
| 2026-04-30 14:50 | 38.77351 | -81.54844 | 27849 ft | 345 kts | 266° |
| 2026-04-30 14:50 | 38.77232 | -81.57916 | 27848 ft | 345 kts | 266° |
| 2026-04-30 14:51 | 38.76992 | -81.64056 | 27847 ft | 345 kts | 266° |
| 2026-04-30 14:51 | 38.76870 | -81.67126 | 27846 ft | 345 kts | 266° |
| 2026-04-30 14:51 | 38.76627 | -81.73261 | 27849 ft | 344 kts | 266° |
| 2026-04-30 14:52 | 38.76503 | -81.76327 | 27849 ft | 344 kts | 266° |
| 2026-04-30 14:52 | 38.76256 | -81.82443 | 27843 ft | 344 kts | 266° |
| 2026-04-30 14:52 | 38.76130 | -81.85501 | 27848 ft | 344 kts | 266° |
| 2026-04-30 14:53 | 38.75876 | -81.91613 | 27846 ft | 343 kts | 266° |
| 2026-04-30 14:53 | 38.75749 | -81.94669 | 27849 ft | 343 kts | 266° |
| 2026-04-30 14:54 | 38.75490 | -82.00785 | 27839 ft | 343 kts | 266° |
| 2026-04-30 14:54 | 38.75253 | -82.06851 | 27849 ft | 343 kts | 267° |
| 2026-04-30 14:55 | 38.75037 | -82.12952 | 27853 ft | 343 kts | 267° |
| 2026-04-30 14:55 | 38.74922 | -82.16002 | 27856 ft | 343 kts | 267° |
| 2026-04-30 14:55 | 38.74694 | -82.22116 | 27851 ft | 343 kts | 267° |
| 2026-04-30 14:56 | 38.74461 | -82.28220 | 27850 ft | 343 kts | 267° |
| 2026-04-30 14:56 | 38.74227 | -82.34324 | 27850 ft | 343 kts | 267° |
| 2026-04-30 14:57 | 38.74148 | -82.36345 | 27853 ft | 343 kts | 267° |
| 2026-04-30 14:57 | 38.73908 | -82.42451 | 27855 ft | 343 kts | 267° |
| 2026-04-30 14:58 | 38.73629 | -82.49546 | 27852 ft | 343 kts | 267° |
| 2026-04-30 14:58 | 38.73545 | -82.51605 | 27858 ft | 343 kts | 267° |
| 2026-04-30 14:58 | 38.73297 | -82.57701 | 27863 ft | 343 kts | 267° |
| 2026-04-30 14:59 | 38.73047 | -82.63796 | 27866 ft | 343 kts | 267° |
| 2026-04-30 15:00 | 38.72670 | -82.72889 | 27866 ft | 342 kts | 267° |
| 2026-04-30 15:00 | 38.72410 | -82.78977 | 27884 ft | 342 kts | 267° |
| 2026-04-30 15:01 | 38.72151 | -82.85069 | 27869 ft | 343 kts | 267° |
| 2026-04-30 15:01 | 38.72019 | -82.88116 | 27865 ft | 343 kts | 267° |
| 2026-04-30 15:01 | 38.71753 | -82.94207 | 27867 ft | 343 kts | 267° |
| 2026-04-30 15:02 | 38.71619 | -82.97259 | 27870 ft | 343 kts | 267° |
| 2026-04-30 15:02 | 38.71483 | -83.00309 | 27868 ft | 343 kts | 267° |
| 2026-04-30 15:03 | 38.71076 | -83.09435 | 27865 ft | 344 kts | 267° |
| 2026-04-30 15:03 | 38.70796 | -83.15546 | 27862 ft | 344 kts | 267° |
| 2026-04-30 15:04 | 38.70516 | -83.21649 | 27867 ft | 343 kts | 267° |
| 2026-04-30 15:04 | 38.70090 | -83.30795 | 27873 ft | 343 kts | 267° |
| 2026-04-30 15:05 | 38.69660 | -83.39894 | 27869 ft | 340 kts | 267° |
| 2026-04-30 15:06 | 38.69364 | -83.45921 | 27869 ft | 338 kts | 268° |
| 2026-04-30 15:06 | 38.69078 | -83.51926 | 27874 ft | 337 kts | 267° |
| 2026-04-30 15:07 | 38.68783 | -83.57920 | 27882 ft | 337 kts | 268° |
| 2026-04-30 15:07 | 38.68488 | -83.63870 | 27886 ft | 337 kts | 267° |
| 2026-04-30 15:08 | 38.68187 | -83.69859 | 27886 ft | 337 kts | 268° |
| 2026-04-30 15:08 | 38.67732 | -83.78832 | 27894 ft | 337 kts | 268° |
| 2026-04-30 15:09 | 38.67425 | -83.84823 | 27890 ft | 337 kts | 267° |
| 2026-04-30 15:09 | 38.67113 | -83.90806 | 27923 ft | 337 kts | 267° |
| 2026-04-30 15:10 | 38.66880 | -83.95271 | 27911 ft | 337 kts | 268° |
| 2026-04-30 15:11 | 38.66245 | -84.07242 | 27896 ft | 337 kts | 268° |
| 2026-04-30 15:11 | 38.65923 | -84.13216 | 27887 ft | 337 kts | 268° |
| 2026-04-30 15:12 | 38.65435 | -84.22181 | 27893 ft | 336 kts | 267° |
| 2026-04-30 15:13 | 38.65105 | -84.28152 | 27892 ft | 336 kts | 267° |
| 2026-04-30 15:14 | 38.61450 | -84.39243 | 27914 ft | 346 kts | 247° |
| 2026-04-30 15:14 | 38.58087 | -84.47301 | 27913 ft | 344 kts | 248° |
| 2026-04-30 15:16 | 38.52359 | -84.60716 | 27900 ft | 343 kts | 248° |
| 2026-04-30 15:17 | 38.47815 | -84.71354 | 27928 ft | 341 kts | 248° |
| 2026-04-30 15:18 | 38.42123 | -84.84628 | 27944 ft | 340 kts | 248° |
| 2026-04-30 15:19 | 38.38708 | -84.92569 | 27950 ft | 340 kts | 248° |